Time;durP1;ratioP1;P1;durP2;ratioP2;P2;SDS_P1;SDS_P2;PMS_P1;PMS_P2;Temp;Humidity;BMP_temperature;BMP_pressure;BME280_temperature;BME280_humidity;BME280_pressure;Samples;Min_cycle;Max_cycle;Signal;HPM_P1;HPM_P2
2023/10/26 00:01:55;;;;;;;46.88;11.05;;;;;;;13.57;100.00;94629.94;4960460;28;20026;-79
2023/10/26 00:04:20;;;;;;;30.27;7.93;;;;;;;13.53;100.00;94631.31;4962608;28;20038;-79
2023/10/26 00:06:46;;;;;;;51.97;11.73;;;;;;;13.34;100.00;94624.25;4950548;28;20030;-77
2023/10/26 00:09:11;;;;;;;32.97;8.38;;;;;;;13.39;100.00;94637.50;4969799;28;20018;-79
2023/10/26 00:11:37;;;;;;;28.00;7.88;;;;;;;13.51;100.00;94651.53;4951289;28;20026;-78
2023/10/26 00:14:03;;;;;;;39.33;7.38;;;;;;;13.59;100.00;94643.53;4947884;28;20030;-78
2023/10/26 00:16:29;;;;;;;31.38;7.22;;;;;;;13.58;100.00;94645.34;4963469;28;20236;-80
2023/10/26 00:18:54;;;;;;;26.70;7.10;;;;;;;13.53;100.00;94641.72;4930313;28;20023;-79
2023/10/26 00:21:20;;;;;;;32.35;7.05;;;;;;;13.55;100.00;94644.94;4971781;28;20037;-78
2023/10/26 00:23:46;;;;;;;36.97;9.02;;;;;;;13.57;100.00;94640.34;4948272;28;20173;-79
2023/10/26 00:26:11;;;;;;;34.60;8.95;;;;;;;13.46;100.00;94635.69;4962465;28;20117;-78
2023/10/26 00:28:37;;;;;;;33.28;8.95;;;;;;;13.34;100.00;94635.47;4963885;28;20479;-78
2023/10/26 00:31:02;;;;;;;26.08;7.18;;;;;;;13.32;100.00;94637.47;4963519;28;20050;-77
2023/10/26 00:33:28;;;;;;;35.53;7.15;;;;;;;13.37;100.00;94618.66;4981351;28;20479;-77
2023/10/26 00:35:53;;;;;;;33.00;6.78;;;;;;;13.20;100.00;94621.59;4963768;28;20033;-79
2023/10/26 00:38:19;;;;;;;25.80;7.40;;;;;;;13.15;100.00;94639.59;4946715;28;20022;-80
2023/10/26 00:40:44;;;;;;;37.40;8.88;;;;;;;12.99;100.00;94626.09;4947734;28;20035;-80
2023/10/26 00:43:22;;;;;;;32.88;6.88;;;;;;;13.05;100.00;94618.31;4964224;28;20031;-78
2023/10/26 00:45:51;;;;;;;36.40;7.72;;;;;;;13.16;100.00;94637.81;4947601;28;20023;-82
2023/10/26 00:48:17;;;;;;;;;;;;;;;13.13;100.00;94649.38;4947634;28;20073;-81
2023/10/26 00:50:42;;;;;;;42.40;9.80;;;;;;;12.95;100.00;94630.06;4963719;28;19913;-80
2023/10/26 00:53:09;;;;;;;32.28;8.05;;;;;;;13.06;100.00;94625.13;4949976;28;20110;-80
2023/10/26 00:55:37;;;;;;;28.05;7.43;;;;;;;13.03;100.00;94630.72;4960147;28;20031;-81
2023/10/26 00:58:03;;;;;;;27.90;8.60;;;;;;;12.62;100.00;94590.91;4987366;28;20053;-79
2023/10/26 01:00:28;;;;;;;27.58;7.50;;;;;;;12.79;100.00;94620.81;4992510;28;20042;-78
2023/10/26 01:02:54;;;;;;;28.92;8.25;;;;;;;13.04;100.00;94637.50;4969152;28;20042;-78
2023/10/26 01:05:19;;;;;;;40.63;8.60;;;;;;;13.00;100.00;94625.88;4975907;28;20101;-79
2023/10/26 01:07:45;;;;;;;35.30;9.73;;;;;;;12.90;100.00;94628.06;4968742;28;20201;-78
2023/10/26 01:10:11;;;;;;;34.78;9.32;;;;;;;12.86;100.00;94649.41;4974384;28;20090;-80
2023/10/26 01:12:38;;;;;;;26.80;8.52;;;;;;;12.99;100.00;94636.50;4999091;28;20006;-78
2023/10/26 01:15:05;;;;;;;30.80;9.10;;;;;;;13.26;100.00;94643.44;4973791;28;20030;-78
2023/10/26 01:17:31;;;;;;;36.85;9.98;;;;;;;13.01;100.00;94629.28;4989020;28;20032;-78
2023/10/26 01:19:56;;;;;;;31.00;7.82;;;;;;;12.89;100.00;94629.06;4988598;28;20941;-78
2023/10/26 01:22:29;;;;;;;26.92;7.90;;;;;;;12.85;100.00;94630.44;5007045;28;20045;-78
2023/10/26 01:24:55;;;;;;;24.80;7.95;;;;;;;12.83;100.00;94632.44;4987819;28;20042;-77
2023/10/26 01:27:20;;;;;;;33.45;7.63;;;;;;;12.84;100.00;94628.84;4986974;28;20044;-78
2023/10/26 01:29:45;;;;;;;25.65;7.07;;;;;;;12.90;100.00;94633.25;4989592;28;20029;-78
2023/10/26 01:32:11;;;;;;;27.23;8.73;;;;;;;12.71;100.00;94620.97;4968995;28;20022;-80
2023/10/26 01:34:36;;;;;;;29.52;7.40;;;;;;;12.59;100.00;94609.50;4974904;28;20025;-78
2023/10/26 01:37:05;;;;;;;29.48;7.43;;;;;;;12.66;100.00;94618.13;4990088;28;20102;-78
2023/10/26 01:39:31;;;;;;;34.78;8.07;;;;;;;12.76;100.00;94616.00;4994091;28;20022;-79
2023/10/26 01:41:56;;;;;;;31.85;8.52;;;;;;;12.69;100.00;94615.16;4970518;28;20034;-79
2023/10/26 01:44:21;;;;;;;25.92;7.13;;;;;;;12.77;100.00;94622.81;4986207;28;20075;-79
2023/10/26 01:46:47;;;;;;;29.42;7.13;;;;;;;12.80;100.00;94625.00;4969727;28;20077;-80
2023/10/26 01:49:12;;;;;;;30.13;6.78;;;;;;;12.61;100.00;94597.13;4985252;28;20030;-79
2023/10/26 01:51:41;;;;;;;29.00;7.13;;;;;;;12.73;100.00;94605.97;4981012;28;20038;-80
2023/10/26 01:54:08;;;;;;;27.80;7.60;;;;;;;12.78;100.00;94610.63;4988491;28;20025;-80
2023/10/26 01:56:34;;;;;;;30.48;7.63;;;;;;;12.87;100.00;94612.84;4994550;28;20281;-79
2023/10/26 01:59:00;;;;;;;19.38;6.80;;;;;;;12.77;100.00;94593.41;4986179;28;20497;-80
2023/10/26 02:01:26;;;;;;;28.92;7.20;;;;;;;12.81;100.00;94607.63;4992538;28;20121;-79
2023/10/26 02:03:54;;;;;;;28.40;7.03;;;;;;;12.86;100.00;94602.63;5003292;28;20514;-80
2023/10/26 02:06:19;;;;;;;26.92;8.00;;;;;;;12.84;100.00;94602.84;4974565;28;20096;-79
2023/10/26 02:08:45;;;;;;;38.45;7.43;;;;;;;12.71;100.00;94592.38;4961319;28;20026;-78
2023/10/26 02:11:10;;;;;;;23.50;6.05;;;;;;;12.77;100.00;94609.81;4972382;28;20402;-79
2023/10/26 02:13:35;;;;;;;27.25;7.00;;;;;;;12.69;100.00;94604.75;4986016;28;20030;-79
2023/10/26 02:16:02;;;;;;;18.25;5.97;;;;;;;12.64;100.00;94594.16;4984769;28;20033;-78
2023/10/26 02:18:29;;;;;;;31.38;6.70;;;;;;;12.73;100.00;94598.19;5003366;28;20080;-79
2023/10/26 02:20:54;;;;;;;27.20;7.75;;;;;;;12.67;100.00;94602.38;4984641;28;20609;-79
2023/10/26 02:23:21;;;;;;;28.63;7.13;;;;;;;12.70;100.00;94606.38;4986432;28;20054;-78
2023/10/26 02:25:46;;;;;;;25.95;6.60;;;;;;;12.65;100.00;94586.16;4968451;28;20030;-78
2023/10/26 02:28:15;;;;;;;24.35;6.95;;;;;;;12.68;100.00;94614.34;4984909;28;20601;-79
2023/10/26 02:30:42;;;;;;;26.90;7.05;;;;;;;12.66;100.00;94594.75;4986145;28;20037;-79
2023/10/26 02:33:08;;;;;;;27.52;7.40;;;;;;;12.60;100.00;94592.91;4985113;28;20428;-79
2023/10/26 02:35:33;;;;;;;26.52;6.43;;;;;;;12.51;100.00;94581.88;4969526;28;20033;-78
2023/10/26 02:37:58;;;;;;;22.17;6.70;;;;;;;12.53;100.00;94589.47;4967527;28;20061;-80
2023/10/26 02:40:24;;;;;;;21.80;7.18;;;;;;;12.57;100.00;94583.72;4985390;28;20419;-79
2023/10/26 02:42:49;;;;;;;33.40;7.40;;;;;;;12.28;100.00;94572.75;4984927;28;20040;-77
2023/10/26 02:45:14;;;;;;;20.55;5.60;;;;;;;12.36;100.00;94565.59;4972907;28;20465;-78
2023/10/26 02:47:42;;;;;;;25.27;6.05;;;;;;;12.36;100.00;94575.97;4987561;28;20033;-77
2023/10/26 02:50:08;;;;;;;20.60;5.32;;;;;;;12.48;100.00;94584.88;4985386;28;20546;-81
2023/10/26 02:52:33;;;;;;;17.30;6.18;;;;;;;12.47;100.00;94582.44;4994653;28;20064;-78
2023/10/26 02:54:58;;;;;;;30.17;6.53;;;;;;;12.28;100.00;94570.16;4968835;28;20084;-78
2023/10/26 02:57:24;;;;;;;23.42;6.13;;;;;;;12.38;100.00;94591.38;4988208;28;20030;-78
2023/10/26 02:59:49;;;;;;;15.57;5.05;;;;;;;12.50;100.00;94592.47;4967837;28;20042;-78
2023/10/26 03:02:15;;;;;;;15.30;5.38;;;;;;;12.41;100.00;94581.44;4971396;28;20021;-78
2023/10/26 03:04:42;;;;;;;24.08;6.78;;;;;;;12.32;100.00;94573.97;4974510;28;20837;-77
2023/10/26 03:07:10;;;;;;;16.65;5.40;;;;;;;12.25;100.00;94581.72;4960838;28;20025;-80
2023/10/26 03:09:37;;;;;;;22.85;5.78;;;;;;;12.20;100.00;94591.09;4976346;28;20426;-79
2023/10/26 03:12:03;;;;;;;19.67;5.90;;;;;;;12.23;100.00;94588.91;4967820;28;20045;-77
2023/10/26 03:14:29;;;;;;;18.52;6.78;;;;;;;12.19;100.00;94587.69;4968596;28;20049;-77
2023/10/26 03:16:54;;;;;;;15.70;5.85;;;;;;;12.24;100.00;94589.69;4977732;28;20022;-78
2023/10/26 03:19:20;;;;;;;20.23;5.28;;;;;;;12.36;100.00;94608.97;4965544;28;20034;-77
2023/10/26 03:21:45;;;;;;;15.38;5.97;;;;;;;12.35;100.00;94586.59;4983631;28;20101;-77
2023/10/26 03:24:10;;;;;;;21.73;7.15;;;;;;;12.45;100.00;94594.84;4984352;28;20038;-78
2023/10/26 03:26:36;;;;;;;17.75;5.78;;;;;;;12.43;100.00;94579.44;4983442;28;20026;-78
2023/10/26 03:29:02;;;;;;;19.05;5.68;;;;;;;12.43;100.00;94579.44;5002614;28;20045;-77
2023/10/26 03:31:28;;;;;;;15.82;7.00;;;;;;;12.19;100.00;94581.69;4956139;28;20037;-78
2023/10/26 03:33:54;;;;;;;24.10;6.07;;;;;;;12.19;100.00;94573.88;4963808;28;20023;-78
2023/10/26 03:36:20;;;;;;;23.13;7.43;;;;;;;12.19;100.00;94579.88;4983393;28;20083;-78
2023/10/26 03:38:46;;;;;;;20.17;7.28;;;;;;;12.20;100.00;94572.91;4999443;28;20054;-77
2023/10/26 03:41:13;;;;;;;18.40;6.57;;;;;;;12.28;100.00;94578.75;4965888;28;20030;-78
2023/10/26 03:43:39;;;;;;;14.63;5.70;;;;;;;12.37;100.00;94594.97;4960864;28;20039;-78
2023/10/26 03:46:07;;;;;;;22.42;6.63;;;;;;;12.33;100.00;94584.16;4977071;28;20022;-79
2023/10/26 03:48:34;;;;;;;18.35;5.90;;;;;;;12.39;100.00;94572.22;4983088;28;20030;-79
2023/10/26 03:50:59;;;;;;;24.50;6.65;;;;;;;12.46;100.00;94586.03;4983776;28;20506;-79
2023/10/26 03:53:26;;;;;;;20.52;7.35;;;;;;;12.31;100.00;94574.97;4982927;28;20057;-78
2023/10/26 03:55:51;;;;;;;16.38;6.80;;;;;;;12.30;100.00;94579.34;4966998;28;20026;-78
2023/10/26 03:58:17;;;;;;;19.33;7.90;;;;;;;12.35;100.00;94573.59;4966200;28;20104;-79
2023/10/26 04:00:42;;;;;;;24.88;7.25;;;;;;;12.30;100.00;94583.72;4984841;28;20612;-79
2023/10/26 04:03:08;;;;;;;12.82;6.25;;;;;;;12.25;100.00;94571.34;4972727;28;20118;-79
2023/10/26 04:05:34;;;;;;;18.63;7.13;;;;;;;12.20;100.00;94572.91;4984452;28;20045;-78
2023/10/26 04:08:02;;;;;;;17.55;7.55;;;;;;;12.22;100.00;94576.09;4993726;28;20064;-78
2023/10/26 04:10:28;;;;;;;18.27;8.48;;;;;;;12.20;100.00;94589.25;4983023;28;20037;-80
2023/10/26 04:12:54;;;;;;;35.10;12.25;;;;;;;11.90;100.00;94562.72;5000627;28;20101;-78
2023/10/26 04:15:19;;;;;;;18.23;7.40;;;;;;;12.04;100.00;94568.81;4969654;28;20056;-77
2023/10/26 04:17:44;;;;;;;14.65;7.25;;;;;;;11.99;100.00;94568.56;4983259;28;20402;-77
2023/10/26 04:20:10;;;;;;;17.90;8.00;;;;;;;12.04;100.00;94592.16;4988464;28;20392;-81
2023/10/26 04:22:36;;;;;;;17.67;8.63;;;;;;;12.10;100.00;94599.97;4948444;28;20074;-79
2023/10/26 04:25:02;;;;;;;24.52;8.18;;;;;;;12.21;100.00;94587.47;4987874;28;20419;-78
2023/10/26 04:27:27;;;;;;;30.30;10.02;;;;;;;12.18;100.00;94585.25;4984305;28;20504;-79
2023/10/26 04:29:53;;;;;;;20.30;9.55;;;;;;;12.14;100.00;94582.22;4972897;28;20030;-78
2023/10/26 04:32:18;;;;;;;13.95;8.70;;;;;;;12.24;100.00;94574.09;5001910;28;20029;-79
2023/10/26 04:34:44;;;;;;;23.80;10.25;;;;;;;12.32;100.00;94577.38;4974606;28;20022;-83
2023/10/26 04:37:10;;;;;;;20.67;10.27;;;;;;;12.28;100.00;94567.56;4968637;28;20026;-79
2023/10/26 04:39:36;;;;;;;29.00;12.82;;;;;;;12.24;100.00;94576.72;4994674;28;20084;-80
2023/10/26 04:42:03;;;;;;;32.95;16.50;;;;;;;12.25;100.00;94578.31;4971106;28;20030;-79
2023/10/26 04:44:28;;;;;;;22.05;13.73;;;;;;;12.09;100.00;94569.84;4962499;28;20034;-78
2023/10/26 04:46:54;;;;;;;26.15;16.52;;;;;;;12.12;100.00;94572.06;5008695;28;20657;-80
2023/10/26 04:49:19;;;;;;;20.45;11.93;;;;;;;12.10;100.00;94578.44;5012530;28;20034;-82
2023/10/26 04:54:21;;;;;;;26.67;16.50;;;;;;;11.95;100.00;94565.53;5110002;23;20049;-79
2023/10/26 04:56:47;;;;;;;18.15;10.48;;;;;;;12.02;100.00;94574.19;5035771;28;20037;-77
2023/10/26 04:59:12;;;;;;;24.02;12.70;;;;;;;12.13;100.00;94584.06;5008547;28;20025;-76
2023/10/26 05:01:38;;;;;;;19.20;11.80;;;;;;;11.93;100.00;94583.09;4991545;28;20545;-77
2023/10/26 05:04:04;;;;;;;21.33;10.77;;;;;;;11.86;100.00;94586.63;4993206;28;20030;-76
2023/10/26 05:06:29;;;;;;;20.75;11.13;;;;;;;11.90;100.00;94593.03;5007436;28;20037;-78
2023/10/26 05:08:55;;;;;;;27.83;10.82;;;;;;;11.87;100.00;94594.22;4991505;28;20497;-80
2023/10/26 05:11:20;;;;;;;22.20;12.48;;;;;;;11.93;100.00;94611.66;4994989;28;20017;-80
2023/10/26 05:13:47;;;;;;;30.70;21.83;;;;;;;12.09;100.00;94613.97;4983944;28;20029;-79
2023/10/26 05:16:13;;;;;;;19.58;14.15;;;;;;;12.14;100.00;94598.63;5020286;28;20034;-78
2023/10/26 05:18:38;;;;;;;22.75;16.45;;;;;;;12.35;100.00;94602.16;4994704;28;20026;-80
2023/10/26 05:21:04;;;;;;;22.55;12.10;;;;;;;12.15;100.00;94591.63;4997265;28;20033;-79
2023/10/26 05:23:30;;;;;;;31.05;17.77;;;;;;;12.18;100.00;94614.63;5016935;28;20026;-81
2023/10/26 05:25:56;;;;;;;21.60;14.32;;;;;;;12.43;100.00;94623.59;5003110;28;20533;-83
2023/10/26 05:28:21;;;;;;;21.13;13.00;;;;;;;12.48;100.00;94623.03;5026174;28;20037;-82
2023/10/26 05:30:47;;;;;;;17.45;10.90;;;;;;;12.60;100.00;94634.47;5011278;28;20037;-79
2023/10/26 05:45:48;;;;;;;14.52;7.65;;;;;;;13.10;100.00;94633.34;5142780;27;20380;-84
2023/10/26 05:48:19;;;;;;;16.80;6.97;;;;;;;13.07;100.00;94631.13;5142020;27;20554;-83
2023/10/26 05:50:45;;;;;;;17.70;7.35;;;;;;;13.63;100.00;94639.56;5143332;27;20026;-83
2023/10/26 05:53:11;;;;;;;15.82;7.13;;;;;;;13.67;100.00;94618.16;5152357;27;20023;-85
2023/10/26 05:55:39;;;;;;;19.05;7.28;;;;;;;13.95;100.00;94599.75;5168112;27;20086;-85
2023/10/26 05:58:05;;;;;;;19.63;6.15;;;;;;;13.87;100.00;94566.09;5146121;27;20030;-86
2023/10/26 06:00:31;;;;;;;20.73;11.35;;;;;;;13.96;100.00;94564.91;5138256;27;20071;-82
2023/10/26 06:02:58;;;;;;;19.10;9.18;;;;;;;14.10;100.00;94543.03;5141914;27;20114;-87
2023/10/26 06:05:23;;;;;;;20.80;11.80;;;;;;;14.15;100.00;94498.16;5137215;27;20495;-85
2023/10/26 06:07:49;;;;;;;12.05;6.35;;;;;;;14.31;100.00;94479.50;5137161;27;20034;-85
2023/10/26 06:10:14;;;;;;;17.45;5.80;;;;;;;14.60;100.00;94473.00;5105891;27;20046;-85
2023/10/26 06:12:40;;;;;;;11.65;6.78;;;;;;;14.64;100.00;94495.06;5137546;27;20106;-83
2023/10/26 06:15:06;;;;;;;16.27;7.22;;;;;;;14.72;100.00;94507.84;5140330;27;20498;-82
2023/10/26 06:17:31;;;;;;;13.52;6.13;;;;;;;14.60;100.00;94489.47;5139348;27;20027;-84
2023/10/26 06:19:57;;;;;;;12.98;6.13;;;;;;;14.83;100.00;94467.28;5138821;27;20038;-85
2023/10/26 06:22:22;;;;;;;18.65;5.93;;;;;;;15.16;100.00;94454.84;5120305;27;20601;-84
2023/10/26 06:24:48;;;;;;;16.35;5.60;;;;;;;15.36;100.00;94424.19;5139787;27;20035;-81
2023/10/26 06:27:13;;;;;;;9.93;5.25;;;;;;;15.69;100.00;94387.41;5121286;27;20106;-83
2023/10/26 06:29:40;;;;;;;15.98;4.78;;;;;;;16.01;100.00;94367.97;5138146;27;20054;-83
2023/10/26 06:32:05;;;;;;;18.17;4.90;;;;;;;15.98;100.00;94331.84;5121102;27;20026;-83
2023/10/26 06:34:31;;;;;;;11.20;4.43;;;;;;;15.97;100.00;94303.31;5136510;27;20023;-84
2023/10/26 06:36:56;;;;;;;12.77;4.40;;;;;;;15.75;100.00;94348.16;5102877;27;20024;-83
2023/10/26 06:39:22;;;;;;;14.90;5.57;;;;;;;15.75;100.00;94355.19;5138107;27;20703;-82
2023/10/26 06:41:47;;;;;;;14.57;5.00;;;;;;;15.84;100.00;94364.34;5136790;27;20038;-82
2023/10/26 06:44:13;;;;;;;12.57;4.50;;;;;;;15.87;100.00;94363.91;5121787;27;20550;-82
2023/10/26 06:46:39;;;;;;;11.38;4.40;;;;;;;16.39;100.00;94348.63;5124891;27;20039;-83
2023/10/26 06:49:04;;;;;;;11.52;4.20;;;;;;;16.79;100.00;94294.78;5122855;27;20034;-82
2023/10/26 06:51:30;;;;;;;8.88;3.83;;;;;;;17.38;100.00;94210.81;5122287;27;20023;-83
2023/10/26 06:53:55;;;;;;;13.45;5.07;;;;;;;17.29;100.00;94170.31;5122862;27;20031;-83
2023/10/26 06:56:21;;;;;;;10.55;3.88;;;;;;;17.22;100.00;94187.16;5123362;27;20643;-81
2023/10/26 06:58:47;;;;;;;12.70;4.65;;;;;;;17.25;100.00;94207.63;5125911;27;20055;-83
2023/10/26 07:01:12;;;;;;;9.27;4.63;;;;;;;16.83;100.00;94223.47;5123178;27;20065;-83
2023/10/26 07:03:38;;;;;;;15.65;4.25;;;;;;;16.76;100.00;94248.94;5124746;27;20480;-82
2023/10/26 07:06:04;;;;;;;13.98;5.00;;;;;;;16.69;100.00;94237.81;5124913;27;20086;-82
2023/10/26 07:08:31;;;;;;;11.88;4.78;;;;;;;16.85;100.00;94233.72;5125199;27;20533;-80
2023/10/26 07:10:56;;;;;;;12.45;5.10;;;;;;;16.81;100.00;94248.25;5124378;27;20039;-82
2023/10/26 07:13:22;;;;;;;11.30;4.45;;;;;;;16.81;100.00;94238.59;5124691;27;20902;-82
2023/10/26 07:15:47;;;;;;;13.63;4.07;;;;;;;17.02;100.00;94213.69;5124672;27;20031;-81
2023/10/26 07:18:15;;;;;;;11.25;3.50;;;;;;;17.57;100.00;94155.66;5124185;27;20035;-81
2023/10/26 07:20:40;;;;;;;11.05;3.90;;;;;;;17.85;100.00;94151.22;5125791;27;20027;-82
2023/10/26 07:23:06;;;;;;;13.05;3.42;;;;;;;17.95;100.00;94140.13;5124257;27;20507;-82
2023/10/26 07:25:34;;;;;;;10.80;2.97;;;;;;;18.22;100.00;94149.00;5123882;27;20015;-82
2023/10/26 07:27:59;;;;;;;9.23;3.35;;;;;;;18.51;100.00;94104.34;5126144;27;20088;-82
2023/10/26 07:30:25;;;;;;;14.88;3.50;;;;;;;18.48;100.00;94128.41;5123826;27;20707;-82
2023/10/26 07:32:50;;;;;;;13.20;3.70;;;;;;;18.74;100.00;94146.16;5122263;27;20023;-82
2023/10/26 07:35:15;;;;;;;8.68;3.03;;;;;;;18.93;100.00;94108.09;5107946;27;20023;-82
2023/10/26 07:37:41;;;;;;;5.85;2.70;;;;;;;19.22;100.00;94106.91;5122635;27;20429;-83
2023/10/26 07:40:07;;;;;;;13.65;3.78;;;;;;;19.23;100.00;94029.69;5106098;27;20042;-83
2023/10/26 07:42:32;;;;;;;13.77;3.15;;;;;;;20.10;100.00;93992.66;5116897;27;20107;-82
2023/10/26 07:44:58;;;;;;;16.23;3.45;;;;;;;21.36;100.00;93960.84;5109245;27;20265;-82
2023/10/26 07:47:23;;;;;;;14.85;3.25;;;;;;;19.93;100.00;93963.91;5120860;27;20031;-84
2023/10/26 07:49:49;;;;;;;16.33;3.60;;;;;;;21.06;100.00;93953.69;5122488;27;20455;-82
2023/10/26 07:52:15;;;;;;;13.57;3.38;;;;;;;22.97;100.00;93926.31;5119226;27;20024;-83
2023/10/26 07:54:40;;;;;;;16.60;3.28;;;;;;;24.15;89.06;93930.50;5105924;27;20050;-83
2023/10/26 07:57:06;;;;;;;10.82;5.50;;;;;;;24.90;83.95;93923.59;5118656;27;20419;-83
2023/10/26 07:59:32;;;;;;;16.20;5.15;;;;;;;23.28;93.38;93918.97;5121294;27;20114;-82
2023/10/26 08:01:57;;;;;;;20.75;4.43;;;;;;;24.86;88.25;93905.88;5119612;27;20099;-83
2023/10/26 08:04:23;;;;;;;19.65;5.28;;;;;;;25.66;82.33;93910.03;5102102;27;20054;-83
2023/10/26 08:06:48;;;;;;;14.27;4.00;;;;;;;25.47;78.71;93906.59;5119775;27;20552;-81
2023/10/26 08:09:13;;;;;;;13.32;3.55;;;;;;;25.02;82.89;93899.31;5120658;27;20026;-84
2023/10/26 08:11:39;;;;;;;14.30;3.42;;;;;;;25.47;69.18;93892.53;5120282;27;20084;-84
2023/10/26 08:14:05;;;;;;;14.18;2.92;;;;;;;25.42;70.66;93895.28;5098334;27;20024;-82
2023/10/26 08:16:30;;;;;;;15.68;3.00;;;;;;;25.70;69.31;93899.66;5114549;27;20503;-83
2023/10/26 08:18:56;;;;;;;15.32;3.22;;;;;;;26.92;64.24;93906.19;5122016;27;20031;-81
2023/10/26 08:21:21;;;;;;;9.85;2.63;;;;;;;26.40;63.59;93879.03;5122216;27;20054;-84
2023/10/26 08:23:47;;;;;;;16.08;2.95;;;;;;;27.41;61.99;93892.09;5120268;27;20534;-84
2023/10/26 08:26:12;;;;;;;20.83;3.15;;;;;;;25.65;64.36;93889.88;5121423;27;20019;-83
2023/10/26 08:28:37;;;;;;;17.15;2.90;;;;;;;26.41;63.65;93883.28;5103333;27;20211;-84
2023/10/26 08:31:03;;;;;;;9.43;3.22;;;;;;;26.23;65.27;93881.50;5119630;27;20031;-88
2023/10/26 08:33:29;;;;;;;21.17;3.17;;;;;;;24.80;73.04;93878.63;5117459;27;20483;-86
2023/10/26 08:35:55;;;;;;;10.63;2.80;;;;;;;23.38;82.13;93867.91;5106570;27;20027;-84
2023/10/26 08:38:22;;;;;;;11.82;3.55;;;;;;;22.43;91.21;93884.03;5119092;27;20019;-85
2023/10/26 08:40:52;;;;;;;16.38;3.05;;;;;;;22.71;84.33;93879.97;5112564;27;20027;-84
2023/10/26 08:43:18;;;;;;;18.15;3.33;;;;;;;23.44;76.44;93877.38;5079512;28;20016;-85
2023/10/26 08:45:47;;;;;;;13.68;3.20;;;;;;;25.64;68.07;93896.28;5095994;28;20043;-83
2023/10/26 08:48:17;;;;;;;15.27;3.15;;;;;;;27.11;65.01;93889.03;5090960;27;20390;-84
2023/10/26 08:50:43;;;;;;;16.90;3.20;;;;;;;27.42;56.15;93886.44;5122286;27;20035;-88
2023/10/26 08:53:09;;;;;;;13.75;2.88;;;;;;;27.36;61.31;93890.31;5103554;27;20106;-82
2023/10/26 08:55:38;;;;;;;14.57;2.80;;;;;;;26.75;55.07;93869.56;5121727;27;20102;-86
2023/10/26 08:58:03;;;;;;;16.00;2.72;;;;;;;27.71;55.66;93880.72;5120555;27;20911;-82
2023/10/26 09:00:32;;;;;;;18.80;3.63;;;;;;;26.47;55.46;93878.63;5119011;27;20019;-86
2023/10/26 09:02:58;;;;;;;14.35;2.80;;;;;;;27.48;55.57;93890.63;5120787;27;20457;-86
2023/10/26 09:05:24;;;;;;;18.02;3.28;;;;;;;27.28;55.32;93872.44;5088566;28;20061;-85
2023/10/26 09:07:51;;;;;;;12.88;2.90;;;;;;;26.61;54.65;93880.22;5096963;27;20035;-89
2023/10/26 09:10:33;;;;;;;8.32;2.35;;;;;;;26.50;56.01;93873.53;5090254;27;20054;-88
2023/10/26 09:13:03;;;;;;;8.57;2.58;;;;;;;24.74;58.83;93876.34;5103562;27;20108;-85
2023/10/26 09:15:29;;;;;;;10.73;2.65;;;;;;;24.39;62.20;93866.97;5118090;27;20066;-84
2023/10/26 09:18:00;;;;;;;12.98;2.53;;;;;;;24.68;62.45;93878.28;5101417;27;20531;-88
2023/10/26 09:20:26;;;;;;;12.90;3.20;;;;;;;24.47;65.30;93868.97;5119269;27;20487;-85
2023/10/26 09:22:51;;;;;;;16.05;2.58;;;;;;;23.33;64.45;93866.09;5088216;28;20059;-82
2023/10/26 09:25:17;;;;;;;11.38;2.33;;;;;;;22.65;65.64;93861.75;5119579;27;20039;-87
2023/10/26 09:27:45;;;;;;;15.25;2.40;;;;;;;22.55;65.34;93862.59;5120841;27;20026;-85
2023/10/26 09:30:28;;;;;;;9.27;2.53;;;;;;;22.71;66.32;93855.41;5124784;27;20027;-86
2023/10/26 09:32:56;;;;;;;8.95;2.10;;;;;;;22.47;66.07;93844.69;5124457;27;20374;-86
2023/10/26 09:35:31;;;;;;;12.52;1.92;;;;;;;22.41;68.73;93858.97;5107872;28;20055;-86
2023/10/26 09:37:57;;;;;;;12.68;2.20;;;;;;;22.31;69.67;93857.16;5110712;28;20031;-84
2023/10/26 09:40:24;;;;;;;8.00;2.55;;;;;;;22.06;67.73;93855.38;5134893;27;20495;-88
2023/10/26 09:42:49;;;;;;;18.73;3.10;;;;;;;22.21;75.31;93848.47;5119285;27;20096;-86
2023/10/26 09:45:18;;;;;;;6.10;2.28;;;;;;;22.32;81.50;93863.19;5109252;28;20043;-85
2023/10/26 09:47:44;;;;;;;11.25;2.22;;;;;;;22.19;72.82;93859.28;5102277;28;20015;-83
2023/10/26 09:50:10;;;;;;;10.18;2.10;;;;;;;22.59;63.91;93847.78;5106668;28;20085;-84
2023/10/26 09:52:36;;;;;;;5.47;1.48;;;;;;;22.40;66.29;93850.25;5124999;28;20572;-82
2023/10/26 09:55:02;;;;;;;6.93;1.80;;;;;;;22.75;68.26;93848.53;5116945;28;20106;-82
2023/10/26 09:57:34;;;;;;;6.45;2.58;;;;;;;23.65;73.17;93851.56;5130089;28;20018;-84
2023/10/26 10:00:00;;;;;;;11.35;1.98;;;;;;;23.01;61.06;93842.03;5121258;28;20128;-86
2023/10/26 10:02:25;;;;;;;9.93;1.73;;;;;;;22.85;60.00;93843.19;5110313;28;20030;-86
2023/10/26 10:04:51;;;;;;;6.00;1.30;;;;;;;22.58;60.94;93831.16;5084444;28;20028;-85
2023/10/26 10:07:17;;;;;;;6.38;1.70;;;;;;;22.46;62.41;93840.44;5120967;28;20055;-84
2023/10/26 10:10:11;;;;;;;15.65;1.42;;;;;;;22.38;60.66;93838.41;5121911;28;20062;-84
2023/10/26 10:12:38;;;;;;;5.15;1.30;;;;;;;22.23;60.52;93833.97;5102075;28;20036;-89
2023/10/26 10:15:06;;;;;;;6.15;1.55;;;;;;;22.44;60.53;93824.13;5111110;28;20054;-86
2023/10/26 10:17:44;;;;;;;9.25;1.48;;;;;;;22.46;61.26;93828.06;5113633;27;20842;-81
2023/10/26 10:20:18;;;;;;;8.07;1.15;;;;;;;22.52;61.57;93819.03;5115366;27;20104;-88
2023/10/26 10:22:44;;;;;;;9.82;2.45;;;;;;;22.50;62.45;93817.75;5107721;28;20026;-82
2023/10/26 10:25:10;;;;;;;3.22;1.42;;;;;;;22.46;61.22;93808.78;5121291;27;20031;-84
2023/10/26 10:27:40;;;;;;;5.45;1.80;;;;;;;22.55;62.01;93807.94;5105028;28;20028;-86
2023/10/26 10:30:11;;;;;;;5.88;1.73;;;;;;;22.54;63.23;93805.56;5102935;27;20551;-84
2023/10/26 10:32:43;;;;;;;8.95;1.40;;;;;;;22.59;63.58;93797.63;5109578;27;20042;-83
2023/10/26 10:35:10;;;;;;;9.43;1.55;;;;;;;22.50;63.64;93786.06;5133663;27;20054;-94
2023/10/26 10:37:36;;;;;;;5.28;1.70;;;;;;;22.56;65.66;93791.03;5124090;27;20531;-90
2023/10/26 10:40:13;;;;;;;6.93;1.35;;;;;;;22.59;64.13;93792.34;5098325;27;20516;-87
2023/10/26 10:42:40;;;;;;;5.88;1.80;;;;;;;22.55;64.41;93780.75;5120816;27;20541;-85
2023/10/26 10:45:15;;;;;;;6.95;1.90;;;;;;;22.63;67.41;93761.69;5113347;27;20035;-85
2023/10/26 10:47:41;;;;;;;6.05;1.63;;;;;;;22.39;66.20;93756.28;5127973;27;20111;-88
2023/10/26 10:50:21;;;;;;;8.57;1.77;;;;;;;22.56;67.14;93746.16;5125970;27;20023;-86
2023/10/26 10:52:50;;;;;;;5.78;1.60;;;;;;;22.71;63.88;93763.78;5106181;27;20035;-84
2023/10/26 10:55:20;;;;;;;7.40;2.40;;;;;;;22.73;64.31;93752.94;5114568;27;20466;-85
2023/10/26 10:57:58;;;;;;;8.52;2.20;;;;;;;22.90;64.99;93750.69;5120902;27;20027;-89
2023/10/26 11:00:26;;;;;;;7.72;1.90;;;;;;;23.03;63.30;93742.94;5106857;27;20030;-87
2023/10/26 11:02:58;;;;;;;7.80;1.88;;;;;;;23.55;61.59;93744.84;5105642;27;20037;-88
2023/10/26 11:05:37;;;;;;;6.47;1.40;;;;;;;23.83;59.70;93745.06;5123340;27;20023;-83
2023/10/26 11:08:04;;;;;;;5.25;1.35;;;;;;;24.00;57.77;93732.94;5122900;27;20644;-82
2023/10/26 11:10:30;;;;;;;6.43;2.28;;;;;;;24.49;58.58;93735.25;5123142;27;20434;-83
2023/10/26 11:12:55;;;;;;;5.40;1.80;;;;;;;24.44;56.28;93730.00;5124537;27;20031;-81
2023/10/26 11:15:30;;;;;;;6.53;1.52;;;;;;;24.51;57.47;93713.75;5115947;27;20023;-87
2023/10/26 11:17:55;;;;;;;4.45;1.85;;;;;;;24.57;57.76;93718.69;5103139;28;20039;-84
2023/10/26 11:20:34;;;;;;;7.97;2.08;;;;;;;24.79;58.31;93728.69;5082691;28;20081;-90
2023/10/26 11:22:59;;;;;;;6.60;1.70;;;;;;;24.40;58.54;93717.66;5112194;27;20031;-87
2023/10/26 11:25:25;;;;;;;7.38;1.77;;;;;;;23.96;60.49;93731.16;5106223;27;20042;-85
2023/10/26 11:27:51;;;;;;;4.85;1.95;;;;;;;23.88;61.40;93726.50;5106230;27;20042;-83
2023/10/26 11:30:16;;;;;;;6.70;2.03;;;;;;;23.93;61.62;93727.22;5107806;27;20039;-83
2023/10/26 11:32:42;;;;;;;7.40;3.00;;;;;;;23.97;62.54;93728.22;5091919;28;20040;-83
2023/10/26 11:35:16;;;;;;;5.20;1.80;;;;;;;23.79;63.75;93709.69;5114893;27;20027;-82